KPLN/PLN METAR and TAF weather

Enter ICAO airport designator
Station Type Date Time Source
KPLN METAR 2021/03/07 07:54 UTC NOAA

KPLN 070754Z AUTO 00000KT 10SM CLR M18/M20 A3039 RMK AO2 SLP307 I1000 T11781200


Station Type Date Time Source
KPLN Decoded METAR 2021/03/07 07:54 UTC NOAA

PELLSTON REGIONAL AIRPORT, MI, United States (KPLN) 45-34N 084-48W 217M
Mar 07, 2021 - 02:54 AM EST / 2021.03.07 0754 UTC
Wind: Calm:0
Visibility: 10 mile(s):0
Sky conditions: clear
Temperature: -0.0 F (-17.8 C)
Dew Point: -4.0 F (-20.0 C)
Relative Humidity: 82%
Pressure (altimeter): 30.39 in. Hg (1029 hPa)
ob: KPLN 070754Z AUTO 00000KT 10SM CLR M18/M20 A3039 RMK AO2 SLP307 I1000 T11781200
cycle: 8

Station Type Date Time Source
KPLN TAF 2021/03/07 06:42 UTC NOAA

TAF KPLN 070539Z 0706/0806 VRB03KT P6SM SKC
FM071800 16005KT P6SM FEW250
FM080300 15008KT P6SM BKN060

Example: see airport list